Aérodrome :
LOGIN :

S'inscrire | Disclaimer

   EN    FR    IT 

 










Légende :    VFR   VFR Marginal   IFR   IFR Intensif   IFR Très Intensif
Visi : 
Plafond : 
>= 8 km
>= 3000ft
5 à 8 km
1000 à 3000 ft
1500m à 5 km
500 à 1000 ft
800 à 1500m
200 à 500 ft
< 800m
< 200 ft
Symboles :   Orages  Brouillard  Fortes neiges  Fortes précipitations  Vent > 20 kt
SIGMETs :   Divers  Orages  Givrage  Turbulence  Onde Orograph.  Cendres Volcan.






- Altitude de l'aérodrome : 526 ft
- Code IATA : LTN


EGGW - London Luton

DERNIER METAR :
  • 011020Z AUTO 07009KT 2100 BR OVC002 04/04 Q1033

METARs EXPIRÉS :
  • 010950Z AUTO 06008KT 1200 R07/P1500 BR OVC001 04/04 Q1033
  • 010920Z AUTO 08007KT 1300 R07/P1500 BR OVC001 04/04 Q1033
  • 010850Z AUTO 10008KT 1000 R07/1400 BR OVC001 04/03 Q1033
  • 010820Z AUTO 08005KT 0550 R07/0800 FG OVC001 03/03 Q1032
  • 010750Z AUTO 10006KT 060V120 0500 R07/1100 FG OVC001 03/03 Q1032

TAF TAF EGGW
Valide du 01 à 06h jusqu'au 02 à 06h UTC


010500Z 0106/0206 07008KT 0300 FG BKN000
TEMPO 0106/0110 2000 BR BKN002
BECMG 0110/0113 9999 NSW FEW010
TEMPO 0113/0118 8000 BKN010
BECMG 0118/0121 6000 BKN006
BECMG 0121/0124 2000 BR BKN002
TEMPO 0200/0206 0300 FG BKN000
ATIS : +44 1582 395 204



MET'MAP, la Météo Aéronautique d'un coup d'oeil ! - Copyright ORBIFLY Décembre 2007 - Disclaimer

ORBIFLY MET'MAP TEAM :

Programmation & Développement : Alexandra Zaïnal
Sur une idée originale de : Baudouin d'Aumeries
Assistance à la programmation : Marc-Olivier Méhu
Soutien technique & logistique : Manuel Goepfert

Contact : metmap@orbifly.com




SOURCES & CREDITS :

   NOAA